Fort Pierce, FL

9:07 AM EDT on September 20, 2014 (GMT -0400)
Saint Lucie County International | Change Station
CLOSE
Current Station
Airport
Location: Ft Pierce,
Elevation: 23 ft
Nearby Weather Stations

Elev 23 ft 27.50 °N, 80.38 °W | Updated 14 minutes ago

Partly Cloudy
Partly Cloudy
76 °F
Feels Like 76 °F
N
4
Wind Variable Wind from South

Today
High -- | Low -- °F
--% Chance of Precip.
Yesterday
High -- | Low -- °F
Precip. -- in
7:09 AM 7:20 PM
Waning Crescent, 12% visible
Pressure 29.91 in
Visibility 10.0 miles
Clouds Few 8500 ft
Dew Point 73 °F
Humidity 91%
Rainfall 0.09 in
Snow Depth Not available.
UV 2 out of 12
Pollen 3.00 out of 12
Air Quality Not available.
Flu Activity Not available.
METAR KFPR 201253Z 17003KT 10SM FEW085 24/23 A2991 RMK AO2 SLP128 T02440228 $

More Conditions Fewer Conditions

Pressure 29.91 in
Visibility 10.0 miles
Clouds Few 8500 ft
Dew Point 73 °F
Humidity 91%
Rainfall 0.09 in
Snow Depth Not available.
UV 2 out of 12
Pollen 3.00 out of 12
Air Quality Not available.
Flu Activity Not available.
METAR KFPR 201253Z 17003KT 10SM FEW085 24/23 A2991 RMK AO2 SLP128 T02440228 $

More Conditions Fewer Conditions

Nowcast | as of 8:24 am EDT on September 20, 2014

cloudy today with morning showers... surface low pressure is taking shape over the Atlantic east of the space coast. With unsettled conditions early today along with considerable cloud cover expect light rain showers to persist through the morning. Along with the showers...there will be a slight chance of afternoon thunderstorms as the low pressure center east of the area begins to move away from the region. Rain amounts of around a tenth to a quarter of an inch are possible. Somewhat higher rain chances will exist along the East Coast and Atlantic waters generally south of Cape Canaveral. Additional details...including graphics are available online at: http://www.Srh.NOAA.Gov/mlb/blog.Php

×

10-Day Weather Forecast

Almanac

Astronomy

Sep. 20, 2014 Rise Set
Actual Time 7:09 AM EDT 7:20 PM EDT
Civil Twilight 6:45 AM EDT 7:43 PM EDT
Nautical Twilight 6:18 AM EDT 8:10 PM EDT
Astronomical Twilight 5:51 AM EDT 8:38 PM EDT
Moon 4:01 AM EDT 5:10 PM EDT
Length of Visible Light 12h 57m
Length of Day
12h 11m
Tomorrow will be 1m 38s shorter.
Waning Crescent, 12% of the Moon is Illuminated
Today
Waning Crescent
Sep 24
New
Oct 1
First Quarter
Oct 8
Full
Oct 15
Last Quarter

Today's Extremes

State Highs State Lows

Community

WunderPhotos

Upload Photos

1,754,847 photos uploaded!

Nearby

Snow Depth

Station Depth Elevation
No new snow has been reported.

Earthquake Activity

City Distance Mag. Time & Date
No recent earthquake activity has been reported nearby.
Minimum magnitude displayed is 2.5.

Coastal Water Temperatures

Place Temperature
Trident Pier, FL 84.0 °F
Virginia Key, FL 84.0 °F

Nearby Weather Stations